Time;durP1;ratioP1;P1;durP2;ratioP2;P2;SDS_P1;SDS_P2;PMS_P1;PMS_P2;Temp;Humidity;BMP_temperature;BMP_pressure;BME280_temperature;BME280_humidity;BME280_pressure;Samples;Min_cycle;Max_cycle;Signal;HPM_P1;HPM_P2
2023/01/22 00:00:05;;;;;;;;;;;0.20;99.90;220.40;238766.00;;;;346949;28;6062;-84
2023/01/22 00:00:18;;;;;;;;;;;0.20;99.90;220.40;238766.00;;;;345890;28;4936;-84
2023/01/22 00:00:30;;;;;;;;;;;0.20;99.90;220.40;238766.00;;;;344366;28;4737;-84
2023/01/22 00:00:42;;;;;;;;;;;0.20;99.90;220.40;238766.00;;;;345854;28;4697;-84
2023/01/22 00:00:54;;;;;;;;;;;0.20;99.90;220.40;238766.00;;;;341705;28;4805;-85
2023/01/22 00:01:11;;;;;;;;;;;0.20;99.90;220.40;238766.00;;;;347125;27;8120;-84
2023/01/22 00:01:24;;;;;;;;;;;0.20;99.90;220.40;238766.00;;;;347143;28;4760;-84
2023/01/22 00:01:35;;;;;;;;;;;0.20;99.90;220.40;238766.00;;;;345899;28;4734;-84
2023/01/22 00:01:47;;;;;;;;;;;0.20;99.90;220.40;238766.00;;;;345575;28;4748;-84
2023/01/22 00:01:59;;;;;;;;;;;0.20;99.90;220.40;238766.00;;;;347179;28;4978;-84
2023/01/22 00:02:10;;;;;;;;;;;0.20;99.90;220.40;238766.00;;;;345704;28;4804;-84
2023/01/22 00:02:22;;;;;;;;;;;0.20;99.90;220.40;238766.00;;;;345566;28;7094;-84
2023/01/22 00:02:35;;;;;;;;;;;0.20;99.90;220.40;238766.00;;;;345735;28;4790;-84
2023/01/22 00:02:47;;;;;;;;;;;0.20;99.90;220.40;238766.00;;;;345812;28;5276;-84
2023/01/22 00:02:59;;;;;;;;;;;0.20;99.90;220.40;238766.00;;;;344263;28;4830;-84
2023/01/22 00:03:11;;;;;;;;;;;0.20;99.90;220.40;238766.00;;;;345892;28;4905;-84
2023/01/22 00:03:23;;;;;;;;;;;0.20;99.90;220.40;238766.00;;;;345757;28;4685;-84
2023/01/22 00:03:35;;;;;;;;;;;0.20;99.90;220.40;238766.00;;;;345773;28;4705;-84
2023/01/22 00:03:48;;;;;;;;;;;0.20;99.90;220.40;238766.00;;;;344306;28;4793;-85
2023/01/22 00:04:00;;;;;;;;;;;0.20;99.90;220.40;238766.00;;;;344505;28;4786;-84
2023/01/22 00:04:12;;;;;;;;;;;0.20;99.90;220.40;238766.00;;;;345734;28;4743;-84
2023/01/22 00:04:24;;;;;;;;;;;0.20;99.90;220.40;238766.00;;;;345523;28;5206;-84
2023/01/22 00:04:36;;;;;;;;;;;0.20;99.90;220.40;238766.00;;;;345836;28;4840;-84
2023/01/22 00:04:48;;;;;;;;;;;0.20;99.90;220.40;238766.00;;;;345778;28;5207;-84
2023/01/22 00:04:59;;;;;;;;;;;0.20;99.90;220.40;238766.00;;;;345766;28;4654;-84
2023/01/22 00:05:11;;;;;;;;;;;0.20;99.90;220.40;238766.00;;;;345753;28;5236;-84
2023/01/22 00:05:23;;;;;;;;;;;0.20;99.90;220.40;238766.00;;;;345719;28;4755;-84
2023/01/22 00:05:35;;;;;;;;;;;0.20;99.90;220.40;238766.00;;;;347077;28;4937;-84
2023/01/22 00:05:49;;;;;;;;;;;0.20;99.90;220.40;238766.00;;;;344500;28;4696;-84
2023/01/22 00:06:00;;;;;;;;;;;0.20;99.90;220.40;238766.00;;;;344523;28;4705;-84
2023/01/22 00:06:12;;;;;;;;;;;0.20;99.90;220.40;238766.00;;;;347173;28;4773;-84
2023/01/22 00:06:24;;;;;;;;;;;0.20;99.90;220.40;238766.00;;;;344529;28;4748;-84
2023/01/22 00:06:36;;;;;;;;;;;0.20;99.90;220.40;238766.00;;;;345727;28;5052;-84
2023/01/22 00:06:48;;;;;;;;;;;0.20;99.90;220.40;238766.00;;;;345353;28;4880;-84
2023/01/22 00:06:59;;;;;;;;;;;0.20;99.90;220.40;238766.00;;;;345632;28;4664;-84
2023/01/22 00:07:12;;;;;;;;;;;0.20;99.90;220.40;238766.00;;;;345658;28;4896;-84
2023/01/22 00:07:23;;;;;;;;;;;0.20;99.90;220.40;238766.00;;;;345737;28;4707;-84
2023/01/22 00:07:35;;;;;;;;;;;0.20;99.90;220.40;238766.00;;;;351453;28;4855;-85
2023/01/22 00:07:47;;;;;;;;;;;0.20;99.90;220.40;238766.00;;;;345861;28;4685;-84
2023/01/22 00:07:59;;;;;;;;;;;0.20;99.90;220.40;238766.00;;;;345798;28;4908;-84
2023/01/22 00:08:10;;;;;;;;;;;0.20;99.90;220.40;238766.00;;;;345665;28;4866;-84
2023/01/22 00:08:22;;;;;;;;;;;0.20;99.90;220.40;238766.00;;;;344328;28;5018;-84
2023/01/22 00:08:34;;;;;;;;;;;0.20;99.90;220.40;238766.00;;;;343247;28;4677;-85
2023/01/22 00:08:47;;;;;;;;;;;0.20;99.90;220.40;238766.00;;;;343053;28;5329;-84
2023/01/22 00:09:02;;;;;;;;;;;0.20;99.90;220.40;238766.00;;;;344394;28;6490;-84
2023/01/22 00:09:15;;;;;;;;;;;0.20;99.90;220.40;238766.00;;;;345874;28;4920;-84
2023/01/22 00:09:27;;;;;;;;;;;0.20;99.90;220.40;238766.00;;;;344473;28;4799;-85
2023/01/22 00:09:38;;;;;;;;;;;0.20;99.90;220.40;238766.00;;;;345796;28;4783;-84
2023/01/22 00:09:50;;;;;;;;;;;0.20;99.90;220.40;238766.00;;;;344571;28;4611;-85
2023/01/22 00:10:02;;;;;;;;;;;0.30;99.90;220.40;238766.00;;;;342855;28;6236;-85
2023/01/22 00:10:14;;;;;;;;;;;0.20;99.90;220.40;238766.00;;;;354375;27;4778;-84
2023/01/22 00:10:26;;;;;;;;;;;0.20;99.90;220.40;238766.00;;;;351635;28;4726;-84
2023/01/22 00:10:38;;;;;;;;;;;0.20;99.90;220.40;238766.00;;;;344247;28;6071;-84
2023/01/22 00:10:51;;;;;;;;;;;0.20;99.90;220.40;238766.00;;;;347240;28;4686;-84
2023/01/22 00:11:03;;;;;;;;;;;0.20;99.90;220.40;238766.00;;;;347222;28;4694;-84
2023/01/22 00:11:15;;;;;;;;;;;0.20;99.90;220.40;238766.00;;;;344546;28;4891;-84
2023/01/22 00:11:27;;;;;;;;;;;0.20;99.90;220.40;238766.00;;;;344337;28;4896;-84
2023/01/22 00:11:39;;;;;;;;;;;0.20;99.90;220.40;238766.00;;;;344446;28;6780;-84
2023/01/22 00:11:51;;;;;;;;;;;0.20;99.90;220.40;238766.00;;;;344551;28;4682;-85
2023/01/22 00:12:03;;;;;;;;;;;0.20;99.90;220.40;238766.00;;;;345595;28;6823;-84
2023/01/22 00:12:14;;;;;;;;;;;0.20;99.90;220.40;238766.00;;;;347235;28;4764;-84
2023/01/22 00:12:26;;;;;;;;;;;0.20;99.90;220.40;238766.00;;;;347029;28;4700;-84
2023/01/22 00:12:38;;;;;;;;;;;0.20;99.90;220.40;238766.00;;;;345859;28;4676;-84
2023/01/22 00:12:50;;;;;;;;;;;0.20;99.90;220.40;238766.00;;;;344253;28;4921;-84
2023/01/22 00:13:02;;;;;;;;;;;0.20;99.90;220.40;238766.00;;;;345538;28;4827;-85
2023/01/22 00:13:14;;;;;;;;;;;0.20;99.90;220.40;238766.00;;;;345720;28;7589;-84
2023/01/22 00:13:26;;;;;;;;;;;0.20;99.90;220.40;238766.00;;;;345741;28;4704;-84
2023/01/22 00:13:37;;;;;;;;;;;0.20;99.90;220.40;238766.00;;;;347259;28;4917;-84
2023/01/22 00:13:49;;;;;;;;;;;0.20;99.90;220.40;238766.00;;;;345779;27;4912;-84
2023/01/22 00:14:01;;;;;;;;;;;0.20;99.90;220.40;238766.00;;;;345789;28;4911;-85
2023/01/22 00:14:13;;;;;;;;;;;0.20;99.90;220.40;238766.00;;;;345669;28;6554;-84
2023/01/22 00:14:25;;;;;;;;;;;0.20;99.90;220.40;238766.00;;;;345848;28;5223;-85
2023/01/22 00:14:37;;;;;;;;;;;0.20;99.90;220.40;238766.00;;;;345765;28;4743;-84
2023/01/22 00:14:48;;;;;;;;;;;0.20;99.90;220.40;238766.00;;;;351352;28;4685;-84
2023/01/22 00:15:00;;;;;;;;;;;0.20;99.90;220.40;238766.00;;;;351523;28;4697;-84
2023/01/22 00:15:12;;;;;;;;;;;0.20;99.90;220.40;238766.00;;;;352955;28;4710;-85
2023/01/22 00:15:24;;;;;;;;;;;0.20;99.90;220.40;238766.00;;;;344441;28;4793;-84
2023/01/22 00:15:37;;;;;;;;;;;0.20;99.90;220.40;238766.00;;;;341844;28;4916;-84
2023/01/22 00:15:49;;;;;;;;;;;0.20;99.90;220.40;238766.00;;;;343103;28;4682;-84
2023/01/22 00:16:01;;;;;;;;;;;0.20;99.90;220.40;238766.00;;;;343160;28;4733;-84
2023/01/22 00:16:15;;;;;;;;;;;0.20;99.90;220.40;238766.00;;;;343042;28;4787;-84
2023/01/22 00:16:26;;;;;;;;;;;0.20;99.90;220.40;238766.00;;;;344236;28;6532;-84
2023/01/22 00:16:40;;;;;;;;;;;0.20;99.90;220.40;238766.00;;;;342868;28;4715;-84
2023/01/22 00:16:51;;;;;;;;;;;0.20;99.90;220.40;238766.00;;;;344472;28;4703;-84
2023/01/22 00:17:03;;;;;;;;;;;0.20;99.90;220.40;238766.00;;;;345813;28;4648;-84
2023/01/22 00:17:15;;;;;;;;;;;0.20;99.90;220.40;238766.00;;;;347228;28;4896;-84
2023/01/22 00:17:28;;;;;;;;;;;0.20;99.90;220.40;238766.00;;;;344376;28;5012;-84
2023/01/22 00:17:39;;;;;;;;;;;0.10;99.90;220.40;238766.00;;;;344565;28;5146;-84
2023/01/22 00:17:52;;;;;;;;;;;0.20;99.90;220.40;238766.00;;;;344475;28;4836;-84
2023/01/22 00:18:04;;;;;;;;;;;0.20;99.90;220.40;238766.00;;;;345781;28;5204;-84
2023/01/22 00:18:16;;;;;;;;;;;0.20;99.90;220.40;238766.00;;;;345848;28;4703;-85
2023/01/22 00:18:27;;;;;;;;;;;0.20;99.90;220.40;238766.00;;;;344491;28;4694;-84
2023/01/22 00:18:39;;;;;;;;;;;0.20;99.90;220.40;238766.00;;;;342967;28;6646;-84
2023/01/22 00:18:51;;;;;;;;;;;0.20;99.90;220.40;238766.00;;;;342971;28;5280;-84
2023/01/22 00:19:03;;;;;;;;;;;0.20;99.90;220.40;238766.00;;;;344485;28;4686;-84
2023/01/22 00:19:14;;;;;;;;;;;0.20;99.90;220.40;238766.00;;;;345871;27;4928;-84
2023/01/22 00:19:26;;;;;;;;;;;0.20;99.90;220.40;238766.00;;;;347189;28;4657;-84
2023/01/22 00:19:38;;;;;;;;;;;0.20;99.90;220.40;238766.00;;;;346897;28;5264;-85
2023/01/22 00:19:50;;;;;;;;;;;0.20;99.90;220.40;238766.00;;;;344518;28;4818;-84
2023/01/22 00:20:02;;;;;;;;;;;0.20;99.90;220.40;238766.00;;;;343082;28;5152;-84
2023/01/22 00:20:14;;;;;;;;;;;0.20;99.90;220.40;238766.00;;;;345736;28;6112;-84
2023/01/22 00:20:27;;;;;;;;;;;0.20;99.90;220.40;238766.00;;;;344507;28;4732;-85
2023/01/22 00:20:38;;;;;;;;;;;0.20;99.90;220.40;238766.00;;;;345716;28;4807;-84
2023/01/22 00:20:53;;;;;;;;;;;0.20;99.90;220.40;238766.00;;;;344468;28;4693;-84
2023/01/22 00:21:04;;;;;;;;;;;0.20;99.90;220.40;238766.00;;;;345738;28;6347;-84
2023/01/22 00:21:17;;;;;;;;;;;0.20;99.90;220.40;238766.00;;;;345901;28;4844;-84
2023/01/22 00:21:28;;;;;;;;;;;0.20;99.90;220.40;238766.00;;;;344388;28;4703;-84
2023/01/22 00:21:40;;;;;;;;;;;0.20;99.90;220.40;238766.00;;;;347218;28;4998;-85
2023/01/22 00:21:52;;;;;;;;;;;0.20;99.90;220.40;238766.00;;;;352748;28;4715;-84
2023/01/22 00:22:03;;;;;;;;;;;0.20;99.90;220.40;238766.00;;;;349780;28;4713;-84
2023/01/22 00:22:15;;;;;;;;;;;0.10;99.90;220.40;238766.00;;;;348762;28;4772;-84
2023/01/22 00:22:27;;;;;;;;;;;0.20;99.90;220.40;238766.00;;;;343119;28;5006;-85
2023/01/22 00:22:38;;;;;;;;;;;0.20;99.90;220.40;238766.00;;;;344540;28;4716;-85
2023/01/22 00:22:50;;;;;;;;;;;0.10;99.90;220.40;238766.00;;;;344322;28;6848;-84
2023/01/22 00:23:02;;;;;;;;;;;0.10;99.90;220.40;238766.00;;;;345756;28;4767;-84
2023/01/22 00:23:14;;;;;;;;;;;0.10;99.90;220.40;238766.00;;;;347179;28;5017;-85
2023/01/22 00:23:26;;;;;;;;;;;0.20;99.90;220.40;238766.00;;;;345741;28;4739;-84
2023/01/22 00:23:38;;;;;;;;;;;0.20;99.90;220.40;238766.00;;;;344447;28;4702;-84
2023/01/22 00:23:50;;;;;;;;;;;0.20;99.90;220.40;238766.00;;;;344473;28;4760;-84
2023/01/22 00:24:02;;;;;;;;;;;0.20;99.90;220.40;238766.00;;;;348525;28;4930;-84
2023/01/22 00:24:13;;;;;;;;;;;0.10;99.90;220.40;238766.00;;;;345656;28;6122;-84
2023/01/22 00:24:25;;;;;;;;;;;0.20;99.90;220.40;238766.00;;;;346692;28;7128;-84
2023/01/22 00:24:40;;;;;;;;;;;0.10;99.90;220.40;238766.00;;;;347091;28;4682;-84
2023/01/22 00:24:51;;;;;;;;;;;0.20;99.90;220.40;238766.00;;;;345728;28;4900;-84
2023/01/22 00:25:04;;;;;;;;;;;0.20;99.90;220.40;238766.00;;;;345824;28;4596;-84
2023/01/22 00:25:16;;;;;;;;;;;0.20;99.90;220.40;238766.00;;;;344524;28;4701;-84
2023/01/22 00:25:27;;;;;;;;;;;0.20;99.90;220.40;238766.00;;;;345428;28;6169;-84
2023/01/22 00:25:39;;;;;;;;;;;0.10;99.90;220.40;238766.00;;;;344390;28;7214;-84
2023/01/22 00:26:17;;;;;;;;;;;0.20;99.90;220.40;238766.00;;;;347046;27;6319;-84
2023/01/22 00:26:29;;;;;;;;;;;0.20;99.90;220.40;238766.00;;;;347892;28;5422;-84
2023/01/22 00:26:41;;;;;;;;;;;0.20;99.90;220.40;238766.00;;;;345805;28;4693;-84
2023/01/22 00:26:52;;;;;;;;;;;0.10;99.90;220.40;238766.00;;;;344548;28;4722;-85
2023/01/22 00:27:05;;;;;;;;;;;0.20;99.90;220.40;238766.00;;;;351301;28;6407;-83
2023/01/22 00:27:17;;;;;;;;;;;0.10;99.90;220.40;238766.00;;;;353085;28;5215;-85
2023/01/22 00:27:28;;;;;;;;;;;0.20;99.90;220.40;238766.00;;;;354197;27;4803;-84
2023/01/22 00:27:40;;;;;;;;;;;0.20;99.90;220.40;238766.00;;;;345657;28;6906;-84
2023/01/22 00:27:52;;;;;;;;;;;0.20;99.90;220.40;238766.00;;;;345786;28;4797;-84
2023/01/22 00:28:05;;;;;;;;;;;0.20;99.90;220.40;238766.00;;;;348350;28;4730;-84
2023/01/22 00:28:17;;;;;;;;;;;0.10;99.90;220.40;238766.00;;;;345766;28;6062;-84
2023/01/22 00:28:29;;;;;;;;;;;0.20;99.90;220.40;238766.00;;;;344359;28;5339;-84
2023/01/22 00:28:43;;;;;;;;;;;0.20;99.90;220.40;238766.00;;;;343162;28;4771;-85
2023/01/22 00:28:55;;;;;;;;;;;0.20;99.90;220.40;238766.00;;;;345710;28;7464;-84
2023/01/22 00:29:07;;;;;;;;;;;0.10;99.90;220.40;238766.00;;;;345854;28;4664;-85
2023/01/22 00:29:19;;;;;;;;;;;0.20;99.90;220.40;238766.00;;;;343228;28;4987;-84
2023/01/22 00:29:30;;;;;;;;;;;0.20;99.90;220.40;238766.00;;;;344342;28;4786;-84
2023/01/22 00:29:42;;;;;;;;;;;0.20;99.90;220.40;238766.00;;;;344393;28;6939;-84
2023/01/22 00:29:54;;;;;;;;;;;0.20;99.90;220.40;238766.00;;;;344397;28;6454;-85
2023/01/22 00:30:07;;;;;;;;;;;0.20;99.90;220.40;238766.00;;;;341685;28;7920;-84
2023/01/22 00:30:19;;;;;;;;;;;0.20;99.90;220.40;238766.00;;;;344533;28;4682;-84
2023/01/22 00:30:31;;;;;;;;;;;0.20;99.90;220.40;238766.00;;;;344444;28;5032;-84
2023/01/22 00:30:42;;;;;;;;;;;0.20;99.90;220.40;238766.00;;;;344394;28;4764;-84
2023/01/22 00:31:00;;;;;;;;;;;0.20;99.90;220.40;238766.00;;;;345762;28;4943;-84
2023/01/22 00:31:13;;;;;;;;;;;0.20;99.90;220.40;238766.00;;;;345881;28;4868;-84
2023/01/22 00:31:25;;;;;;;;;;;0.20;99.90;220.40;238766.00;;;;344500;28;4696;-84
2023/01/22 00:31:37;;;;;;;;;;;0.20;99.90;220.40;238766.00;;;;344135;27;4695;-84
2023/01/22 00:31:49;;;;;;;;;;;0.20;99.90;220.40;238766.00;;;;347207;28;4948;-84
2023/01/22 00:32:01;;;;;;;;;;;0.20;99.90;220.40;238766.00;;;;345817;28;4883;-84
2023/01/22 00:32:13;;;;;;;;;;;0.20;99.90;220.40;238766.00;;;;345756;28;4733;-84
2023/01/22 00:32:25;;;;;;;;;;;0.20;99.90;220.40;238766.00;;;;344405;28;4739;-84
2023/01/22 00:32:36;;;;;;;;;;;0.20;99.90;220.40;238766.00;;;;348601;28;4740;-84
2023/01/22 00:32:48;;;;;;;;;;;0.20;99.90;220.40;238766.00;;;;343012;28;4838;-84
2023/01/22 00:33:00;;;;;;;;;;;0.20;99.90;220.40;238766.00;;;;344402;28;4724;-83
2023/01/22 00:33:12;;;;;;;;;;;0.20;99.90;220.40;238766.00;;;;345827;28;4675;-84
2023/01/22 00:33:24;;;;;;;;;;;0.20;99.90;220.40;238766.00;;;;348498;27;4849;-83
2023/01/22 00:33:36;;;;;;;;;;;0.20;99.90;220.40;238766.00;;;;345852;28;4687;-84
2023/01/22 00:33:48;;;;;;;;;;;0.20;99.90;220.40;238766.00;;;;347167;28;5218;-84
2023/01/22 00:34:00;;;;;;;;;;;0.20;99.90;220.40;238766.00;;;;345338;28;4825;-84
2023/01/22 00:34:12;;;;;;;;;;;0.20;99.90;220.40;238766.00;;;;343053;28;4726;-84
2023/01/22 00:34:23;;;;;;;;;;;0.20;99.90;220.40;238766.00;;;;346890;28;4988;-84
2023/01/22 00:34:35;;;;;;;;;;;0.20;99.90;220.40;238766.00;;;;345835;28;4782;-84
2023/01/22 00:34:51;;;;;;;;;;;0.20;99.90;220.40;238766.00;;;;344507;28;6300;-83
2023/01/22 00:35:03;;;;;;;;;;;0.20;99.90;220.40;238766.00;;;;343073;28;5171;-84
2023/01/22 00:35:15;;;;;;;;;;;0.20;99.90;220.40;238766.00;;;;344468;28;4685;-84
2023/01/22 00:35:27;;;;;;;;;;;0.20;99.90;220.40;238766.00;;;;345755;28;4735;-84
2023/01/22 00:35:38;;;;;;;;;;;0.20;99.90;220.40;238766.00;;;;347138;27;5016;-84
2023/01/22 00:35:50;;;;;;;;;;;0.30;99.90;220.40;238766.00;;;;344412;28;6832;-84
2023/01/22 00:36:06;;;;;;;;;;;0.20;99.90;220.40;238766.00;;;;344290;28;4831;-83
2023/01/22 00:36:19;;;;;;;;;;;0.20;99.90;220.40;238766.00;;;;344487;28;4728;-84
2023/01/22 00:36:31;;;;;;;;;;;0.20;99.90;220.40;238766.00;;;;345798;28;4831;-84
2023/01/22 00:36:43;;;;;;;;;;;0.20;99.90;220.40;238766.00;;;;346917;28;4701;-84
2023/01/22 00:36:55;;;;;;;;;;;0.20;99.90;220.40;238766.00;;;;343076;28;4680;-84
2023/01/22 00:37:06;;;;;;;;;;;0.20;99.90;220.40;238766.00;;;;345841;28;5206;-83
2023/01/22 00:37:19;;;;;;;;;;;0.20;99.90;220.40;238766.00;;;;347181;28;4713;-84
2023/01/22 00:37:31;;;;;;;;;;;0.20;99.90;220.40;238766.00;;;;354209;27;5016;-84
2023/01/22 00:37:42;;;;;;;;;;;0.20;99.90;220.40;238766.00;;;;351577;28;4679;-84
2023/01/22 00:37:54;;;;;;;;;;;0.20;99.90;220.40;238766.00;;;;347800;28;5105;-84
2023/01/22 00:38:06;;;;;;;;;;;0.20;99.90;220.40;238766.00;;;;345685;28;6304;-84
2023/01/22 00:38:18;;;;;;;;;;;0.20;99.90;220.40;238766.00;;;;351407;27;4716;-84
2023/01/22 00:38:29;;;;;;;;;;;0.20;99.90;220.40;238766.00;;;;352928;28;4718;-84
2023/01/22 00:38:41;;;;;;;;;;;0.20;99.90;220.40;238766.00;;;;350303;28;4716;-84
2023/01/22 00:38:53;;;;;;;;;;;0.20;99.90;220.40;238766.00;;;;350122;28;4930;-84
2023/01/22 00:39:05;;;;;;;;;;;0.20;99.90;220.40;238766.00;;;;351531;28;4932;-84
2023/01/22 00:39:16;;;;;;;;;;;0.20;99.90;220.40;238766.00;;;;352914;28;4687;-83
2023/01/22 00:39:28;;;;;;;;;;;0.20;99.90;220.40;238766.00;;;;354317;27;4727;-83
2023/01/22 00:39:40;;;;;;;;;;;0.20;99.90;220.40;238766.00;;;;354361;27;4795;-84
2023/01/22 00:39:52;;;;;;;;;;;0.20;99.90;220.40;238766.00;;;;351603;28;5148;-84
2023/01/22 00:40:04;;;;;;;;;;;0.20;99.90;220.40;238766.00;;;;351381;28;4774;-83
2023/01/22 00:40:16;;;;;;;;;;;0.20;99.90;220.40;238766.00;;;;351384;28;4720;-84
2023/01/22 00:40:28;;;;;;;;;;;0.20;99.90;220.40;238766.00;;;;350049;28;4730;-84
2023/01/22 00:40:40;;;;;;;;;;;0.20;99.90;220.40;238766.00;;;;352936;28;4903;-83
2023/01/22 00:40:52;;;;;;;;;;;0.20;99.90;220.40;238766.00;;;;352523;27;4848;-83
2023/01/22 00:41:04;;;;;;;;;;;0.20;99.90;220.40;238766.00;;;;352936;28;5118;-84
2023/01/22 00:41:17;;;;;;;;;;;0.20;99.90;220.40;238766.00;;;;351549;28;4811;-84
2023/01/22 00:41:29;;;;;;;;;;;0.30;99.90;220.40;238766.00;;;;348749;28;5167;-83
2023/01/22 00:41:41;;;;;;;;;;;0.20;99.90;220.40;238766.00;;;;352831;28;4836;-84
2023/01/22 00:41:53;;;;;;;;;;;0.20;99.90;220.40;238766.00;;;;351569;28;5032;-84
2023/01/22 00:42:05;;;;;;;;;;;0.20;99.90;220.40;238766.00;;;;350121;28;4746;-84
2023/01/22 00:42:16;;;;;;;;;;;0.20;99.90;220.40;238766.00;;;;351547;28;5371;-84
2023/01/22 00:42:28;;;;;;;;;;;0.20;99.90;220.40;238766.00;;;;349851;28;6085;-83
2023/01/22 00:42:40;;;;;;;;;;;0.20;99.90;220.40;238766.00;;;;351574;28;5166;-84
2023/01/22 00:42:52;;;;;;;;;;;0.20;99.90;220.40;238766.00;;;;349935;28;5015;-83
2023/01/22 00:43:03;;;;;;;;;;;0.20;99.90;220.40;238766.00;;;;350003;28;4734;-83
2023/01/22 00:43:15;;;;;;;;;;;0.20;99.90;220.40;238766.00;;;;353011;28;4680;-83
2023/01/22 00:43:27;;;;;;;;;;;0.20;99.90;220.40;238766.00;;;;352467;28;6618;-84
2023/01/22 00:43:39;;;;;;;;;;;0.20;99.90;220.40;238766.00;;;;354301;27;4810;-84
2023/01/22 00:43:51;;;;;;;;;;;0.20;99.90;220.40;238766.00;;;;352966;28;4704;-84
2023/01/22 00:44:03;;;;;;;;;;;0.20;99.90;220.40;238766.00;;;;351363;28;4771;-84
2023/01/22 00:44:15;;;;;;;;;;;0.20;99.90;220.40;238766.00;;;;351218;28;6595;-83
2023/01/22 00:44:27;;;;;;;;;;;0.20;99.90;220.40;238766.00;;;;351566;28;4701;-84
2023/01/22 00:44:38;;;;;;;;;;;0.20;99.90;220.40;238766.00;;;;350096;28;5271;-84
2023/01/22 00:44:50;;;;;;;;;;;0.20;99.90;220.40;238766.00;;;;351511;28;4768;-83
2023/01/22 00:45:02;;;;;;;;;;;0.20;99.90;220.40;238766.00;;;;350088;28;4735;-83
2023/01/22 00:45:14;;;;;;;;;;;0.20;99.90;220.40;238766.00;;;;352934;28;4686;-84
2023/01/22 00:45:26;;;;;;;;;;;0.20;99.90;220.40;238766.00;;;;350123;28;5267;-83
2023/01/22 00:45:38;;;;;;;;;;;0.20;99.90;220.40;238766.00;;;;351501;28;4779;-84
2023/01/22 00:45:50;;;;;;;;;;;0.20;99.90;220.40;238766.00;;;;351488;28;4704;-84
2023/01/22 00:46:02;;;;;;;;;;;0.20;99.90;220.40;238766.00;;;;351255;28;4688;-84
2023/01/22 00:46:15;;;;;;;;;;;0.20;99.90;220.40;238766.00;;;;351568;28;4930;-83
2023/01/22 00:46:26;;;;;;;;;;;0.20;99.90;220.40;238766.00;;;;351514;28;4681;-84
2023/01/22 00:46:38;;;;;;;;;;;0.20;99.90;220.40;238766.00;;;;350175;28;4915;-84
2023/01/22 00:46:51;;;;;;;;;;;0.20;99.90;220.40;238766.00;;;;350059;28;4720;-84
2023/01/22 00:47:03;;;;;;;;;;;0.20;99.90;220.40;238766.00;;;;351471;28;5186;-84
2023/01/22 00:47:15;;;;;;;;;;;0.20;99.90;220.40;238766.00;;;;352942;28;4683;-84
2023/01/22 00:47:26;;;;;;;;;;;0.20;99.90;220.40;238766.00;;;;351401;27;4973;-83
2023/01/22 00:47:39;;;;;;;;;;;0.20;99.90;220.40;238766.00;;;;352908;28;4824;-84
2023/01/22 00:47:50;;;;;;;;;;;0.20;99.90;220.40;238766.00;;;;352921;27;5147;-84
2023/01/22 00:48:02;;;;;;;;;;;0.20;99.90;220.40;238766.00;;;;348554;28;4797;-84
2023/01/22 00:48:14;;;;;;;;;;;0.20;99.90;220.40;238766.00;;;;354129;27;5146;-84
2023/01/22 00:48:26;;;;;;;;;;;0.20;99.90;220.40;238766.00;;;;352900;28;4667;-84
2023/01/22 00:48:38;;;;;;;;;;;0.20;99.90;220.40;238766.00;;;;351209;28;6808;-84
2023/01/22 00:48:50;;;;;;;;;;;0.20;99.90;220.40;238766.00;;;;352669;27;4802;-84
2023/01/22 00:49:02;;;;;;;;;;;0.20;99.90;220.40;238766.00;;;;354464;27;4926;-84
2023/01/22 00:49:14;;;;;;;;;;;0.20;99.90;220.40;238766.00;;;;351598;28;4753;-84
2023/01/22 00:49:26;;;;;;;;;;;0.20;99.90;220.40;238766.00;;;;352463;28;6664;-84
2023/01/22 00:49:37;;;;;;;;;;;0.20;99.90;220.40;238766.00;;;;355802;27;4707;-84
2023/01/22 00:49:49;;;;;;;;;;;0.20;99.90;220.40;238766.00;;;;351527;28;4873;-84
2023/01/22 00:50:01;;;;;;;;;;;0.20;99.90;220.40;238766.00;;;;351412;28;4870;-84
2023/01/22 00:50:13;;;;;;;;;;;0.20;99.90;220.40;238766.00;;;;351474;28;4777;-84
2023/01/22 00:50:25;;;;;;;;;;;0.20;99.90;220.40;238766.00;;;;354308;27;4863;-84
2023/01/22 00:50:37;;;;;;;;;;;0.20;99.90;220.40;238766.00;;;;352781;27;4974;-84
2023/01/22 00:50:48;;;;;;;;;;;0.20;99.90;220.40;238766.00;;;;352858;28;4735;-84
2023/01/22 00:51:00;;;;;;;;;;;0.20;99.90;220.40;238766.00;;;;352954;28;4740;-84
2023/01/22 00:51:13;;;;;;;;;;;0.20;99.90;220.40;238766.00;;;;351280;28;6562;-84
2023/01/22 00:51:25;;;;;;;;;;;0.20;99.90;220.40;238766.00;;;;351224;28;6889;-83
2023/01/22 00:51:38;;;;;;;;;;;0.20;99.90;220.40;238766.00;;;;353015;28;4688;-84
2023/01/22 00:51:50;;;;;;;;;;;0.20;99.90;220.40;238766.00;;;;352671;28;4705;-84
2023/01/22 00:52:02;;;;;;;;;;;0.20;99.90;220.40;238766.00;;;;352904;28;4699;-84
2023/01/22 00:52:13;;;;;;;;;;;0.20;99.90;220.40;238766.00;;;;352773;27;4716;-83
2023/01/22 00:52:25;;;;;;;;;;;0.20;99.90;220.40;238766.00;;;;352697;28;6434;-84
2023/01/22 00:52:37;;;;;;;;;;;0.20;99.90;220.40;238766.00;;;;352929;28;4686;-83
2023/01/22 00:52:48;;;;;;;;;;;0.20;99.90;220.40;238766.00;;;;354239;27;4865;-83
2023/01/22 00:53:02;;;;;;;;;;;0.20;99.90;220.40;238766.00;;;;355858;27;4911;-84
2023/01/22 00:53:14;;;;;;;;;;;0.20;99.90;220.40;238766.00;;;;355439;27;6292;-83
2023/01/22 00:53:26;;;;;;;;;;;0.20;99.90;220.40;238766.00;;;;352855;28;4906;-83
2023/01/22 00:53:40;;;;;;;;;;;0.20;99.90;220.40;238766.00;;;;351318;28;6056;-84
2023/01/22 00:53:51;;;;;;;;;;;0.20;99.90;220.40;238766.00;;;;351573;28;4974;-84
2023/01/22 00:54:03;;;;;;;;;;;0.20;99.90;220.40;238766.00;;;;351544;28;4623;-83
2023/01/22 00:54:15;;;;;;;;;;;0.20;99.90;220.40;238766.00;;;;352883;28;4702;-84
2023/01/22 00:54:28;;;;;;;;;;;0.20;99.90;220.40;238766.00;;;;351382;28;4778;-83
2023/01/22 00:54:40;;;;;;;;;;;0.20;99.90;220.40;238766.00;;;;351538;28;4930;-84
2023/01/22 00:54:52;;;;;;;;;;;0.20;99.90;220.40;238766.00;;;;350033;28;4736;-84
2023/01/22 00:55:04;;;;;;;;;;;0.20;99.90;220.40;238766.00;;;;351243;28;5287;-83
2023/01/22 00:55:16;;;;;;;;;;;0.20;99.90;220.40;238766.00;;;;349991;28;4796;-84
2023/01/22 00:55:29;;;;;;;;;;;0.20;99.90;220.40;238766.00;;;;351282;28;4951;-84
2023/01/22 00:55:57;;;;;;;;;;;0.20;99.90;220.40;238766.00;;;;354132;27;6357;-84
2023/01/22 00:56:09;;;;;;;;;;;0.20;99.90;220.40;238766.00;;;;354334;27;4700;-84
2023/01/22 00:56:21;;;;;;;;;;;0.20;99.90;220.40;238766.00;;;;350226;28;4649;-84
2023/01/22 00:56:32;;;;;;;;;;;0.10;99.90;220.40;238766.00;;;;351585;28;4705;-84
2023/01/22 00:56:44;;;;;;;;;;;0.20;99.90;220.40;238766.00;;;;350103;28;4913;-83
2023/01/22 00:56:56;;;;;;;;;;;0.20;99.90;220.40;238766.00;;;;353004;27;4936;-84
2023/01/22 00:57:08;;;;;;;;;;;0.20;99.90;220.40;238766.00;;;;352842;28;4695;-84
2023/01/22 00:57:20;;;;;;;;;;;0.20;99.90;220.40;238766.00;;;;352974;28;4713;-84
2023/01/22 00:57:32;;;;;;;;;;;0.20;99.90;220.40;238766.00;;;;355423;27;5978;-84
2023/01/22 00:57:44;;;;;;;;;;;0.20;99.90;220.40;238766.00;;;;354063;27;4728;-84
2023/01/22 00:57:56;;;;;;;;;;;0.20;99.90;220.40;238766.00;;;;351317;28;4786;-84
2023/01/22 00:58:07;;;;;;;;;;;0.20;99.90;220.40;238766.00;;;;351187;28;5154;-83
2023/01/22 00:58:19;;;;;;;;;;;0.10;99.90;220.40;238766.00;;;;350008;28;4788;-83
2023/01/22 00:58:31;;;;;;;;;;;0.20;99.90;220.40;238766.00;;;;351619;28;4965;-84
2023/01/22 00:58:42;;;;;;;;;;;0.10;99.90;220.40;238766.00;;;;352867;28;4663;-84
2023/01/22 00:58:54;;;;;;;;;;;0.20;99.90;220.40;238766.00;;;;354250;27;4700;-83
2023/01/22 00:59:09;;;;;;;;;;;0.20;99.90;220.40;238766.00;;;;351569;28;4650;-84
2023/01/22 00:59:21;;;;;;;;;;;0.20;99.90;220.40;238766.00;;;;352924;28;4957;-84
2023/01/22 00:59:33;;;;;;;;;;;0.10;99.90;220.40;238766.00;;;;354276;27;4884;-83
2023/01/22 00:59:45;;;;;;;;;;;0.20;99.90;220.40;238766.00;;;;354364;27;5394;-84
2023/01/22 00:59:56;;;;;;;;;;;0.20;99.90;220.40;238766.00;;;;351551;28;4781;-83
2023/01/22 01:00:09;;;;;;;;;;;0.10;99.90;220.40;238766.00;;;;352613;27;5151;-84
2023/01/22 01:00:21;;;;;;;;;;;0.20;99.90;220.40;238766.00;;;;352904;27;6193;-84